Terminal Aerodrome Forecast
Issued by NWS

Home | Current Version | Previous Version | Text Only | Print | Product List | Glossary On
Versions: 1 2 3 4 5 6 7 8 9 10 11 12
000
FTUS45 KFGZ 261500 AAA
TAFGCN
TAF AMD
KGCN 261529Z 2615/2712 VRB03KT P6SM SCT020
     FM261800 29008KT P6SM BKN040
     FM270100 VRB02KT P6SM BKN035=

USA.gov is the U.S. government's official web portal to all federal, state and local government web resources and services.